createdAt,value
2019-03-06T00:00:07.679Z,2.20
2019-03-06T00:01:07.559Z,2.20
2019-03-06T00:02:05.607Z,2.10
2019-03-06T00:03:04.846Z,2.10
2019-03-06T00:04:05.204Z,2.10
2019-03-06T00:05:07.903Z,2.10
2019-03-06T00:06:04.933Z,2.10
2019-03-06T00:07:05.226Z,2.20
2019-03-06T00:08:05.320Z,2.10
2019-03-06T00:09:05.392Z,2.10
2019-03-06T00:10:08.018Z,2.20
2019-03-06T00:11:05.039Z,2.20
2019-03-06T00:12:08.179Z,2.20
2019-03-06T00:13:05.190Z,2.10
2019-03-06T00:14:05.355Z,2.20
2019-03-06T00:15:07.752Z,2.20
2019-03-06T00:16:04.953Z,2.20
2019-03-06T00:17:07.677Z,2.20
2019-03-06T00:18:05.695Z,2.20
2019-03-06T00:19:07.344Z,2.20
2019-03-06T00:20:05.282Z,2.20
2019-03-06T00:21:05.016Z,2.20
2019-03-06T00:22:05.201Z,2.20
2019-03-06T00:23:05.394Z,2.20
2019-03-06T00:24:05.563Z,2.20
2019-03-06T00:25:04.753Z,2.30
2019-03-06T00:26:04.935Z,2.30
2019-03-06T00:27:07.613Z,2.30
2019-03-06T00:28:05.657Z,2.30
2019-03-06T00:29:04.867Z,2.30
2019-03-06T00:30:05.313Z,2.30
2019-03-06T00:31:07.903Z,2.30
2019-03-06T00:32:04.950Z,2.30
2019-03-06T00:33:05.006Z,2.30
2019-03-06T00:34:05.159Z,2.30
2019-03-06T00:35:05.339Z,2.30
2019-03-06T00:36:08.100Z,2.30
2019-03-06T00:37:05.072Z,2.30
2019-03-06T00:38:05.202Z,2.30
2019-03-06T00:39:05.291Z,2.30
2019-03-06T00:40:05.468Z,2.30
2019-03-06T00:41:05.733Z,2.30
2019-03-06T00:42:07.487Z,2.30
2019-03-06T00:43:05.441Z,2.30
2019-03-06T00:44:08.107Z,2.30
2019-03-06T00:45:05.072Z,2.30
2019-03-06T00:46:07.639Z,2.30
2019-03-06T00:47:05.674Z,2.30
2019-03-06T00:48:07.604Z,2.30
2019-03-06T00:49:08.049Z,2.20
2019-03-06T00:50:05.205Z,2.30
2019-03-06T00:51:05.262Z,2.20
2019-03-06T00:52:05.371Z,2.20
2019-03-06T00:53:05.452Z,2.20
2019-03-06T00:54:05.599Z,2.20
2019-03-06T00:55:10.267Z,2.20
2019-03-06T00:56:05.371Z,2.20
2019-03-06T00:57:05.396Z,2.20
2019-03-06T00:58:05.531Z,2.20
2019-03-06T00:59:07.403Z,2.20
2019-03-06T01:00:05.381Z,2.20
2019-03-06T01:01:05.512Z,2.20
2019-03-06T01:02:05.689Z,2.20
2019-03-06T01:03:04.919Z,2.20
2019-03-06T01:04:04.914Z,2.20
2019-03-06T01:05:05.378Z,2.20
2019-03-06T01:06:05.469Z,2.20
2019-03-06T01:07:08.193Z,2.30
2019-03-06T01:08:05.369Z,2.30
2019-03-06T01:09:08.034Z,2.30
2019-03-06T01:10:05.070Z,2.30
2019-03-06T01:11:05.113Z,2.30
2019-03-06T01:12:05.220Z,2.30
2019-03-06T01:13:05.331Z,2.30
2019-03-06T01:14:05.004Z,2.30
2019-03-06T01:15:05.147Z,2.30
2019-03-06T01:16:07.862Z,2.30
2019-03-06T01:17:05.021Z,2.30
2019-03-06T01:18:05.147Z,2.30
2019-03-06T01:19:05.222Z,2.40
2019-03-06T01:20:05.349Z,2.30
2019-03-06T01:21:07.945Z,2.30
2019-03-06T01:22:04.900Z,2.30
2019-03-06T01:23:05.523Z,2.30
2019-03-06T01:24:05.651Z,2.30
2019-03-06T01:25:04.894Z,2.30
2019-03-06T01:26:07.650Z,2.30
2019-03-06T01:27:08.150Z,2.30
2019-03-06T01:28:07.608Z,2.30
2019-03-06T01:29:05.727Z,2.30
2019-03-06T01:30:04.953Z,2.30
2019-03-06T01:31:07.674Z,2.30
2019-03-06T01:32:05.131Z,2.30
2019-03-06T01:33:07.784Z,2.30
2019-03-06T01:34:04.960Z,2.30
2019-03-06T01:35:05.151Z,2.30
2019-03-06T01:36:05.259Z,2.30
2019-03-06T01:37:05.310Z,2.30
2019-03-06T01:38:07.909Z,2.30
2019-03-06T01:39:07.531Z,2.30
2019-03-06T01:40:05.510Z,2.30
2019-03-06T01:41:05.403Z,2.30
2019-03-06T01:42:07.997Z,2.30
2019-03-06T01:43:07.559Z,2.30
2019-03-06T01:44:05.502Z,2.30
2019-03-06T01:45:10.122Z,2.30
2019-03-06T01:46:05.206Z,2.30
2019-03-06T01:47:05.221Z,2.30
2019-03-06T01:48:05.311Z,2.30
2019-03-06T01:49:05.518Z,2.20
2019-03-06T01:50:04.709Z,2.20
2019-03-06T01:51:05.114Z,2.20
2019-03-06T01:52:05.216Z,2.20
2019-03-06T01:53:05.412Z,2.20
2019-03-06T01:54:05.544Z,2.20
2019-03-06T01:55:05.606Z,2.20
2019-03-06T01:56:04.896Z,2.20
2019-03-06T01:57:05.120Z,2.20
2019-03-06T01:58:08.014Z,2.20
2019-03-06T01:59:13.034Z,2.20
2019-03-06T02:00:07.643Z,2.20
2019-03-06T02:01:08.128Z,2.20
2019-03-06T02:02:07.681Z,2.20
2019-03-06T02:03:04.822Z,2.10
2019-03-06T02:04:05.099Z,2.10
2019-03-06T02:05:05.413Z,2.20
2019-03-06T02:06:08.168Z,2.20
2019-03-06T02:07:07.848Z,2.10
2019-03-06T02:08:04.864Z,2.10
2019-03-06T02:09:07.609Z,2.10
2019-03-06T02:10:05.585Z,2.00
2019-03-06T02:11:07.426Z,2.10
2019-03-06T02:12:07.850Z,2.10
2019-03-06T02:13:04.927Z,2.00
2019-03-06T02:14:07.791Z,2.00
2019-03-06T02:15:04.819Z,2.00
2019-03-06T02:16:05.341Z,2.00
2019-03-06T02:17:05.497Z,2.00
2019-03-06T02:18:05.585Z,2.00
2019-03-06T02:19:04.840Z,2.00
2019-03-06T02:20:05.110Z,2.00
2019-03-06T02:21:07.755Z,2.00
2019-03-06T02:22:07.308Z,2.00
2019-03-06T02:23:05.235Z,2.00
2019-03-06T02:24:05.357Z,2.00
2019-03-06T02:25:05.070Z,2.00
2019-03-06T02:26:07.743Z,2.00
2019-03-06T02:27:04.896Z,2.00
2019-03-06T02:28:05.063Z,2.00
2019-03-06T02:29:05.241Z,1.90
2019-03-06T02:30:05.676Z,1.90
2019-03-06T02:31:05.363Z,1.90
2019-03-06T02:32:05.518Z,1.90
2019-03-06T02:33:08.103Z,1.90
2019-03-06T02:34:05.492Z,1.90
2019-03-06T02:35:05.549Z,1.90
2019-03-06T02:36:05.644Z,1.90
2019-03-06T02:37:07.403Z,1.80
2019-03-06T02:38:05.457Z,1.80
2019-03-06T02:39:05.581Z,1.80
2019-03-06T02:40:04.818Z,1.90
2019-03-06T02:41:05.155Z,1.80
2019-03-06T02:42:05.029Z,1.80
2019-03-06T02:43:07.736Z,1.80
2019-03-06T02:44:09.835Z,1.70
2019-03-06T02:45:07.438Z,1.80
2019-03-06T02:46:05.346Z,1.80
2019-03-06T02:47:05.466Z,1.80
2019-03-06T02:48:05.505Z,1.70
2019-03-06T02:49:05.523Z,1.70
2019-03-06T02:50:05.113Z,1.70
2019-03-06T02:51:09.210Z,1.70
2019-03-06T02:52:07.890Z,1.70
2019-03-06T02:53:04.990Z,1.60
2019-03-06T02:54:05.265Z,1.70
2019-03-06T02:55:07.908Z,1.70
2019-03-06T02:56:05.069Z,1.60
2019-03-06T02:57:05.220Z,1.60
2019-03-06T02:58:05.393Z,1.60
2019-03-06T02:59:05.097Z,1.70
2019-03-06T03:00:05.242Z,1.60
2019-03-06T03:01:10.552Z,1.60
2019-03-06T03:02:05.504Z,1.60
2019-03-06T03:03:04.886Z,1.60
2019-03-06T03:04:07.490Z,1.70
2019-03-06T03:05:05.416Z,1.60
2019-03-06T03:06:05.483Z,1.70
2019-03-06T03:07:05.651Z,1.70
2019-03-06T03:08:07.610Z,1.70
2019-03-06T03:09:08.254Z,1.70
2019-03-06T03:10:05.759Z,1.70
2019-03-06T03:11:05.344Z,1.80
2019-03-06T03:12:10.588Z,1.80
2019-03-06T03:13:05.672Z,1.80
2019-03-06T03:14:05.086Z,1.90
2019-03-06T03:15:05.301Z,1.80
2019-03-06T03:16:07.344Z,1.90
2019-03-06T03:17:08.048Z,1.90
2019-03-06T03:18:07.646Z,1.90
2019-03-06T03:19:08.122Z,1.90
2019-03-06T03:20:05.321Z,2.00
2019-03-06T03:21:05.356Z,2.00
2019-03-06T03:22:05.463Z,2.00
2019-03-06T03:23:05.588Z,2.00
2019-03-06T03:24:05.194Z,2.00
2019-03-06T03:25:04.911Z,2.00
2019-03-06T03:26:05.145Z,2.00
2019-03-06T03:27:07.839Z,2.10
2019-03-06T03:28:07.423Z,2.10
2019-03-06T03:29:05.343Z,2.00
2019-03-06T03:30:07.987Z,2.00
2019-03-06T03:31:07.557Z,2.00
2019-03-06T03:32:05.601Z,2.00
2019-03-06T03:33:07.711Z,2.00
2019-03-06T03:34:07.342Z,2.00
2019-03-06T03:35:05.433Z,2.00
2019-03-06T03:36:08.125Z,1.90
2019-03-06T03:37:05.135Z,1.90
2019-03-06T03:38:05.207Z,1.90
2019-03-06T03:39:05.293Z,1.90
2019-03-06T03:40:05.336Z,1.90
2019-03-06T03:41:07.967Z,1.90
2019-03-06T03:42:05.458Z,1.80
2019-03-06T03:43:05.512Z,1.80
2019-03-06T03:44:08.154Z,1.80
2019-03-06T03:45:05.186Z,1.80
2019-03-06T03:46:07.872Z,1.80
2019-03-06T03:47:04.900Z,1.80
2019-03-06T03:48:05.057Z,1.80
2019-03-06T03:49:05.202Z,1.80
2019-03-06T03:50:04.836Z,1.80
2019-03-06T03:51:05.177Z,1.80
2019-03-06T03:52:07.821Z,1.80
2019-03-06T03:53:04.939Z,1.80
2019-03-06T03:54:05.159Z,1.80
2019-03-06T03:55:05.424Z,1.80
2019-03-06T03:56:08.118Z,1.80
2019-03-06T03:57:07.782Z,1.80
2019-03-06T03:58:07.337Z,1.80
2019-03-06T03:59:07.414Z,1.80
2019-03-06T04:00:05.329Z,1.80
2019-03-06T04:01:07.927Z,1.80
2019-03-06T04:02:07.791Z,1.80
2019-03-06T04:03:04.881Z,1.80
2019-03-06T04:04:07.805Z,1.80
2019-03-06T04:05:07.386Z,1.90
2019-03-06T04:06:05.471Z,1.80
2019-03-06T04:07:07.796Z,1.90
2019-03-06T04:08:04.999Z,1.80
2019-03-06T04:09:05.177Z,1.90
2019-03-06T04:10:05.311Z,1.90
2019-03-06T04:11:05.382Z,1.90
2019-03-06T04:12:10.502Z,1.90
2019-03-06T04:13:05.405Z,1.90
2019-03-06T04:14:05.533Z,1.90
2019-03-06T04:15:04.963Z,1.90
2019-03-06T04:16:07.589Z,1.90
2019-03-06T04:17:05.591Z,1.90
2019-03-06T04:18:05.023Z,1.90
2019-03-06T04:19:07.716Z,1.90
2019-03-06T04:20:07.323Z,1.90
2019-03-06T04:21:05.456Z,1.90
2019-03-06T04:22:08.126Z,1.90
2019-03-06T04:23:05.360Z,1.90
2019-03-06T04:24:05.169Z,1.90
2019-03-06T04:25:07.972Z,2.00
2019-03-06T04:26:05.239Z,2.00
2019-03-06T04:27:07.923Z,2.00
2019-03-06T04:28:05.159Z,2.00
2019-03-06T04:29:05.519Z,2.10
2019-03-06T04:30:07.546Z,2.00
2019-03-06T04:31:05.525Z,2.10
2019-03-06T04:32:05.642Z,2.10
2019-03-06T04:33:04.909Z,2.10
2019-03-06T04:34:07.629Z,2.10
2019-03-06T04:35:08.231Z,2.10
2019-03-06T04:36:07.851Z,2.10
2019-03-06T04:37:05.075Z,2.10
2019-03-06T04:38:05.280Z,2.20
2019-03-06T04:39:05.397Z,2.20
2019-03-06T04:40:05.704Z,2.20
2019-03-06T04:41:05.062Z,2.20
2019-03-06T04:42:07.766Z,2.30
2019-03-06T04:43:07.538Z,2.30
2019-03-06T04:44:05.681Z,2.20
2019-03-06T04:45:10.333Z,2.20
2019-03-06T04:46:05.354Z,2.30
2019-03-06T04:47:05.456Z,2.30
2019-03-06T04:48:08.164Z,2.30
2019-03-06T04:49:05.219Z,2.30
2019-03-06T04:50:07.751Z,2.30
2019-03-06T04:51:07.469Z,2.30
2019-03-06T04:52:05.468Z,2.30
2019-03-06T04:53:05.673Z,2.30
2019-03-06T04:54:07.662Z,2.30
2019-03-06T04:55:08.153Z,2.30
2019-03-06T04:56:07.692Z,2.40
2019-03-06T04:57:05.200Z,2.40
2019-03-06T04:58:05.530Z,2.40
2019-03-06T04:59:07.770Z,2.40
2019-03-06T05:00:10.361Z,2.40
2019-03-06T05:01:07.999Z,2.50
2019-03-06T05:02:05.041Z,2.50
2019-03-06T05:03:05.292Z,2.50
2019-03-06T05:04:05.451Z,2.50
2019-03-06T05:05:05.756Z,2.50
2019-03-06T05:06:05.120Z,2.60
2019-03-06T05:07:05.011Z,2.60
2019-03-06T05:08:05.695Z,2.60
2019-03-06T05:09:05.094Z,2.60
2019-03-06T05:10:10.730Z,2.70
2019-03-06T05:11:05.131Z,2.70
2019-03-06T05:12:05.524Z,2.70
2019-03-06T05:13:05.660Z,2.70
2019-03-06T05:14:10.119Z,2.80
2019-03-06T05:15:05.563Z,2.80
2019-03-06T05:16:05.303Z,2.80
2019-03-06T05:17:05.485Z,2.90
2019-03-06T05:18:05.606Z,2.90
2019-03-06T05:19:07.740Z,2.90
2019-03-06T05:20:07.500Z,3.00
2019-03-06T05:21:08.020Z,3.00
2019-03-06T05:22:05.236Z,3.00
2019-03-06T05:23:05.620Z,3.00
2019-03-06T05:24:04.948Z,3.00
2019-03-06T05:25:15.687Z,3.00
2019-03-06T05:26:05.436Z,3.00
2019-03-06T05:27:08.266Z,3.00
2019-03-06T05:28:07.913Z,3.00
2019-03-06T05:29:04.927Z,3.00
2019-03-06T05:30:07.996Z,3.00
2019-03-06T05:31:05.152Z,3.00
2019-03-06T05:32:05.566Z,3.00
2019-03-06T05:33:05.202Z,3.00
2019-03-06T05:34:05.373Z,3.00
2019-03-06T05:35:13.210Z,3.00
2019-03-06T05:36:10.515Z,3.10
2019-03-06T05:37:05.457Z,3.00
2019-03-06T05:38:04.969Z,3.10
2019-03-06T05:39:05.187Z,3.10
2019-03-06T05:40:08.047Z,3.10
2019-03-06T05:41:05.203Z,3.10
2019-03-06T05:42:05.732Z,3.10
2019-03-06T05:43:05.056Z,3.10
2019-03-06T05:44:07.892Z,3.10
2019-03-06T05:45:04.984Z,3.10
2019-03-06T05:46:07.779Z,3.10
2019-03-06T05:47:07.993Z,3.10
2019-03-06T05:48:05.292Z,3.10
2019-03-06T05:49:05.659Z,3.10
2019-03-06T05:50:07.883Z,3.00
2019-03-06T05:51:05.134Z,3.00
2019-03-06T05:52:05.433Z,3.00
2019-03-06T05:53:05.661Z,3.10
2019-03-06T05:54:05.086Z,3.00
2019-03-06T05:55:07.798Z,3.10
2019-03-06T05:56:07.645Z,3.00
2019-03-06T05:57:07.794Z,3.00
2019-03-06T05:58:05.510Z,3.00
2019-03-06T05:59:05.009Z,3.00
2019-03-06T06:00:07.689Z,3.00
2019-03-06T06:01:04.986Z,3.00
2019-03-06T06:02:05.283Z,3.00
2019-03-06T06:03:08.017Z,3.00
2019-03-06T06:04:08.037Z,3.00
2019-03-06T06:05:05.005Z,3.00
2019-03-06T06:06:05.919Z,3.00
2019-03-06T06:07:08.307Z,3.00
2019-03-06T06:08:05.475Z,3.00
2019-03-06T06:09:05.382Z,3.00
2019-03-06T06:10:08.464Z,3.00
2019-03-06T06:11:05.681Z,3.00
2019-03-06T06:12:07.827Z,3.10
2019-03-06T06:13:04.979Z,3.10
2019-03-06T06:14:05.607Z,3.10
2019-03-06T06:15:07.768Z,3.10
2019-03-06T06:16:07.744Z,3.20
2019-03-06T06:17:05.009Z,3.20
2019-03-06T06:18:05.040Z,3.20
2019-03-06T06:19:05.521Z,3.20
2019-03-06T06:20:08.394Z,3.30
2019-03-06T06:21:10.615Z,3.30
2019-03-06T06:22:05.717Z,3.30
2019-03-06T06:23:05.489Z,3.30
2019-03-06T06:24:05.067Z,3.30
2019-03-06T06:25:07.985Z,3.40
2019-03-06T06:26:05.337Z,3.40
2019-03-06T06:27:05.665Z,3.50
2019-03-06T06:28:05.049Z,3.50
2019-03-06T06:29:05.389Z,3.60
2019-03-06T06:30:05.647Z,3.60
2019-03-06T06:31:07.583Z,3.70
2019-03-06T06:32:10.683Z,3.70
2019-03-06T06:33:05.949Z,3.70
2019-03-06T06:34:05.373Z,3.80
2019-03-06T06:35:05.038Z,3.80
2019-03-06T06:36:08.227Z,3.90
2019-03-06T06:37:05.605Z,3.90
2019-03-06T06:38:07.547Z,4.00
2019-03-06T06:39:05.515Z,4.00
2019-03-06T06:40:05.578Z,4.00
2019-03-06T06:41:05.130Z,4.00
2019-03-06T06:42:05.341Z,4.10
2019-03-06T06:43:10.509Z,4.10
2019-03-06T06:44:05.573Z,4.10
2019-03-06T06:45:07.517Z,4.20
2019-03-06T06:46:10.686Z,4.20
2019-03-06T06:47:05.230Z,4.20
2019-03-06T06:48:05.620Z,4.20
2019-03-06T06:49:05.380Z,4.20
2019-03-06T06:50:05.244Z,4.20
2019-03-06T06:51:05.679Z,4.20
2019-03-06T06:52:05.164Z,4.30
2019-03-06T06:53:05.132Z,4.30
2019-03-06T06:54:04.999Z,4.30
2019-03-06T06:55:07.945Z,4.30
2019-03-06T06:56:07.733Z,4.30
2019-03-06T06:57:04.931Z,4.30
2019-03-06T06:58:12.828Z,4.40
2019-03-06T06:59:07.790Z,4.40
2019-03-06T07:00:05.165Z,4.40
2019-03-06T07:01:05.462Z,4.50
2019-03-06T07:02:05.352Z,4.60
2019-03-06T07:03:07.306Z,4.70
2019-03-06T07:04:05.315Z,4.70
2019-03-06T07:05:07.998Z,5.00
2019-03-06T07:06:05.151Z,4.90
2019-03-06T07:07:05.699Z,5.00
2019-03-06T07:08:07.720Z,5.20
2019-03-06T07:09:09.862Z,5.30
2019-03-06T07:10:07.625Z,5.40
2019-03-06T07:11:08.178Z,5.40
2019-03-06T07:12:07.753Z,5.50
2019-03-06T07:13:07.828Z,5.60
2019-03-06T07:14:12.921Z,5.70
2019-03-06T07:15:05.064Z,5.70
2019-03-06T07:16:07.844Z,5.90
2019-03-06T07:17:05.217Z,5.90
2019-03-06T07:18:08.065Z,6.00
2019-03-06T07:19:05.211Z,6.00
2019-03-06T07:20:04.807Z,6.10
2019-03-06T07:21:05.210Z,6.10
2019-03-06T07:22:05.512Z,6.20
2019-03-06T07:23:07.521Z,6.20
2019-03-06T07:24:05.669Z,6.30
2019-03-06T07:25:07.500Z,6.30
2019-03-06T07:26:05.505Z,6.30
2019-03-06T07:27:05.632Z,6.40
2019-03-06T07:28:05.062Z,6.40
2019-03-06T07:29:05.622Z,6.50
2019-03-06T07:30:07.582Z,6.50
2019-03-06T07:31:05.848Z,6.50
2019-03-06T07:32:05.569Z,6.60
2019-03-06T07:33:07.769Z,6.60
2019-03-06T07:34:05.142Z,6.60
2019-03-06T07:35:05.621Z,6.60
2019-03-06T07:36:07.693Z,6.70
2019-03-06T07:37:05.122Z,6.70
2019-03-06T07:38:08.051Z,6.70
2019-03-06T07:39:08.089Z,6.70
2019-03-06T07:40:05.538Z,6.70
2019-03-06T07:41:08.237Z,6.60
2019-03-06T07:42:05.303Z,6.60
2019-03-06T07:43:05.453Z,6.60
2019-03-06T07:44:05.576Z,6.60
2019-03-06T07:45:05.077Z,6.60
2019-03-06T07:46:05.843Z,6.60
2019-03-06T07:47:05.272Z,6.60
2019-03-06T07:48:05.617Z,6.60
2019-03-06T07:49:04.866Z,6.60
2019-03-06T07:50:05.421Z,6.60
2019-03-06T07:51:05.691Z,6.60
2019-03-06T07:52:05.138Z,6.50
2019-03-06T07:53:08.058Z,6.50
2019-03-06T07:54:07.686Z,6.50
2019-03-06T07:55:07.588Z,6.50
2019-03-06T07:56:05.672Z,6.50
2019-03-06T07:57:05.391Z,6.50
2019-03-06T07:58:08.037Z,6.40
2019-03-06T07:59:05.156Z,6.40
2019-03-06T08:00:05.456Z,6.40
2019-03-06T08:01:16.791Z,6.40
2019-03-06T08:02:04.886Z,6.40
2019-03-06T08:03:08.053Z,6.40
2019-03-06T08:04:07.735Z,6.40
2019-03-06T08:05:07.759Z,6.40
2019-03-06T08:06:05.185Z,6.50
2019-03-06T08:07:05.652Z,6.40
2019-03-06T08:08:07.486Z,6.50
2019-03-06T08:09:05.650Z,6.50
2019-03-06T08:10:05.023Z,6.50
2019-03-06T08:11:05.361Z,6.50
2019-03-06T08:12:05.459Z,6.50
2019-03-06T08:13:05.686Z,6.60
2019-03-06T08:14:07.857Z,6.60
2019-03-06T08:15:05.536Z,6.60
2019-03-06T08:16:07.542Z,6.60
2019-03-06T08:17:13.428Z,6.60
2019-03-06T08:18:08.235Z,6.70
2019-03-06T08:19:05.361Z,6.70
2019-03-06T08:20:05.736Z,6.70
2019-03-06T08:21:05.265Z,6.70
2019-03-06T08:22:08.447Z,6.80
2019-03-06T08:23:07.987Z,6.80
2019-03-06T08:24:07.804Z,6.80
2019-03-06T08:25:05.244Z,6.80
2019-03-06T08:26:07.935Z,6.90
2019-03-06T08:27:05.112Z,6.90
2019-03-06T08:28:05.380Z,6.90
2019-03-06T08:29:05.701Z,7.00
2019-03-06T08:30:05.354Z,7.00
2019-03-06T08:31:05.724Z,7.00
2019-03-06T08:32:10.286Z,7.10
2019-03-06T08:33:05.498Z,7.10
2019-03-06T08:34:05.904Z,7.10
2019-03-06T08:35:07.867Z,7.20
2019-03-06T08:36:05.205Z,7.10
2019-03-06T08:37:05.499Z,7.20
2019-03-06T08:38:08.183Z,7.30
2019-03-06T08:39:05.603Z,7.30
2019-03-06T08:40:05.081Z,7.30
2019-03-06T08:41:10.338Z,7.40
2019-03-06T08:42:05.630Z,7.40
2019-03-06T08:43:05.122Z,7.40
2019-03-06T08:44:07.944Z,7.50
2019-03-06T08:45:05.132Z,7.50
2019-03-06T08:46:10.477Z,7.60
2019-03-06T08:47:05.583Z,7.50
2019-03-06T08:48:05.484Z,7.60
2019-03-06T08:49:08.311Z,7.70
2019-03-06T08:50:05.439Z,7.60
2019-03-06T08:51:08.056Z,7.70
2019-03-06T08:52:07.937Z,7.70
2019-03-06T08:53:05.145Z,7.70
2019-03-06T08:54:05.716Z,7.80
2019-03-06T08:55:04.864Z,7.80
2019-03-06T08:56:05.318Z,7.80
2019-03-06T08:57:05.649Z,7.80
2019-03-06T08:58:05.082Z,7.90
2019-03-06T08:59:10.394Z,7.90
2019-03-06T09:00:05.598Z,7.90
2019-03-06T09:01:07.519Z,7.90
2019-03-06T09:02:15.221Z,8.00
2019-03-06T09:03:07.597Z,8.00
2019-03-06T09:04:08.282Z,8.00
2019-03-06T09:05:05.331Z,7.90
2019-03-06T09:06:05.423Z,8.00
2019-03-06T09:07:05.699Z,8.00
2019-03-06T09:08:05.197Z,8.00
2019-03-06T09:09:05.284Z,8.00
2019-03-06T09:10:11.007Z,8.10
2019-03-06T09:11:10.369Z,8.10
2019-03-06T09:12:08.350Z,8.10
2019-03-06T09:13:05.739Z,8.10
2019-03-06T09:14:08.065Z,8.30
2019-03-06T09:15:10.528Z,8.30
2019-03-06T09:16:08.157Z,8.30
2019-03-06T09:17:05.598Z,8.30
2019-03-06T09:18:08.990Z,8.40
2019-03-06T09:19:08.232Z,8.50
2019-03-06T09:20:05.280Z,8.50
2019-03-06T09:21:05.428Z,8.60
2019-03-06T09:22:08.163Z,8.70
2019-03-06T09:23:05.515Z,8.70
2019-03-06T09:24:07.678Z,8.80
2019-03-06T09:25:08.315Z,8.90
2019-03-06T09:26:05.558Z,8.90
2019-03-06T09:27:08.045Z,9.00
2019-03-06T09:28:05.312Z,9.00
2019-03-06T09:29:08.087Z,9.10
2019-03-06T09:30:05.590Z,9.10
2019-03-06T09:31:05.299Z,9.20
2019-03-06T09:32:05.301Z,9.30
2019-03-06T09:33:08.159Z,9.40
2019-03-06T09:34:07.987Z,9.40
2019-03-06T09:35:07.864Z,9.40
2019-03-06T09:36:05.552Z,9.50
2019-03-06T09:37:07.805Z,9.50
2019-03-06T09:38:10.906Z,9.50
2019-03-06T09:39:08.190Z,9.60
2019-03-06T09:40:06.208Z,9.60
2019-03-06T09:41:05.876Z,9.60
2019-03-06T09:42:05.351Z,9.70
2019-03-06T09:43:05.513Z,9.70
2019-03-06T09:44:07.866Z,9.80
2019-03-06T09:45:05.436Z,9.70
2019-03-06T09:46:08.126Z,9.80
2019-03-06T09:47:13.008Z,9.80
2019-03-06T09:48:05.398Z,9.80
2019-03-06T09:49:11.406Z,9.90
2019-03-06T09:50:07.566Z,10.00
2019-03-06T09:51:08.277Z,10.00
2019-03-06T09:52:05.441Z,10.00
2019-03-06T09:53:05.115Z,10.00
2019-03-06T09:54:05.302Z,10.10
2019-03-06T09:55:08.479Z,10.10
2019-03-06T09:56:05.531Z,10.10
2019-03-06T09:57:05.865Z,10.10
2019-03-06T09:58:07.662Z,10.10
2019-03-06T09:59:10.026Z,10.10
2019-03-06T10:00:07.913Z,10.10
2019-03-06T10:01:05.289Z,10.10
2019-03-06T10:02:07.496Z,10.10
2019-03-06T10:03:05.643Z,10.10
2019-03-06T10:04:05.239Z,10.10
2019-03-06T10:05:05.464Z,10.00
2019-03-06T10:06:08.080Z,9.90
2019-03-06T10:07:05.158Z,10.00
2019-03-06T10:08:07.960Z,9.80
2019-03-06T10:09:05.091Z,9.80
2019-03-06T10:10:05.456Z,9.70
2019-03-06T10:11:07.808Z,9.60
2019-03-06T10:12:05.028Z,9.50
2019-03-06T10:13:05.296Z,9.50
2019-03-06T10:14:05.378Z,9.50
2019-03-06T10:15:08.053Z,9.40
2019-03-06T10:16:05.288Z,9.40
2019-03-06T10:17:08.239Z,9.40
2019-03-06T10:18:08.055Z,9.40
2019-03-06T10:19:05.514Z,9.40
2019-03-06T10:20:05.114Z,9.40
2019-03-06T10:21:05.369Z,9.50
2019-03-06T10:22:05.610Z,9.50
2019-03-06T10:23:08.357Z,9.60
2019-03-06T10:24:05.744Z,9.60
2019-03-06T10:25:05.256Z,9.60
2019-03-06T10:26:08.088Z,9.70
2019-03-06T10:27:05.456Z,9.70
2019-03-06T10:28:10.519Z,9.70
2019-03-06T10:29:05.925Z,9.70
2019-03-06T10:30:07.747Z,9.80
2019-03-06T10:31:05.033Z,9.80
2019-03-06T10:32:05.438Z,9.80
2019-03-06T10:33:05.437Z,9.90
2019-03-06T10:34:08.562Z,9.90
2019-03-06T10:35:05.645Z,9.90
2019-03-06T10:36:05.165Z,10.00
2019-03-06T10:38:08.285Z,10.10
2019-03-06T10:39:07.850Z,10.10
2019-03-06T10:40:05.108Z,10.10
2019-03-06T10:41:07.954Z,10.10
2019-03-06T10:42:05.325Z,10.10
2019-03-06T10:43:05.603Z,10.20
2019-03-06T10:44:07.409Z,10.10
2019-03-06T10:45:08.068Z,10.10
2019-03-06T10:46:10.437Z,10.10
2019-03-06T10:47:05.434Z,10.10
2019-03-06T10:48:07.670Z,10.10
2019-03-06T10:49:07.383Z,10.20
2019-03-06T10:50:05.314Z,10.10
2019-03-06T10:51:08.062Z,10.20
2019-03-06T10:52:07.771Z,10.20
2019-03-06T10:53:07.959Z,10.20
2019-03-06T10:54:07.892Z,10.30
2019-03-06T10:55:05.312Z,10.30
2019-03-06T10:56:08.012Z,10.30
2019-03-06T10:57:05.371Z,10.30
2019-03-06T10:58:05.158Z,10.40
2019-03-06T10:59:05.434Z,10.40
2019-03-06T11:00:08.153Z,10.50
2019-03-06T11:01:07.777Z,10.50
2019-03-06T11:02:07.631Z,10.60
2019-03-06T11:03:07.715Z,10.70
2019-03-06T11:04:07.388Z,10.60
2019-03-06T11:05:05.422Z,10.70
2019-03-06T11:06:08.101Z,10.70
2019-03-06T11:07:07.871Z,10.80
2019-03-06T11:08:07.889Z,10.80
2019-03-06T11:09:05.078Z,10.80
2019-03-06T11:10:07.852Z,10.90
2019-03-06T11:11:07.634Z,10.90
2019-03-06T11:12:07.737Z,10.90
2019-03-06T11:13:08.611Z,10.90
2019-03-06T11:14:07.728Z,10.90
2019-03-06T11:15:07.568Z,10.90
2019-03-06T11:16:05.665Z,10.90
2019-03-06T11:17:05.308Z,11.00
2019-03-06T11:18:07.859Z,11.00
2019-03-06T11:19:07.690Z,11.00
2019-03-06T11:20:04.812Z,11.00
2019-03-06T11:21:07.722Z,11.10
2019-03-06T11:22:05.024Z,11.10
2019-03-06T11:23:10.795Z,11.20
2019-03-06T11:24:07.652Z,11.20
2019-03-06T11:25:08.187Z,11.30
2019-03-06T11:26:07.784Z,11.30
2019-03-06T11:27:05.298Z,11.30
2019-03-06T11:28:05.498Z,11.40
2019-03-06T11:29:05.705Z,11.40
2019-03-06T11:30:07.977Z,11.60
2019-03-06T11:31:05.042Z,11.50
2019-03-06T11:32:05.569Z,11.60
2019-03-06T11:33:07.455Z,11.70
2019-03-06T11:34:08.078Z,11.80
2019-03-06T11:35:07.806Z,11.70
2019-03-06T11:36:10.281Z,11.80
2019-03-06T11:37:07.832Z,11.90
2019-03-06T11:38:07.700Z,11.90
2019-03-06T11:39:04.914Z,11.90
2019-03-06T11:40:05.428Z,11.90
2019-03-06T11:41:08.277Z,12.00
2019-03-06T11:42:07.873Z,12.00
2019-03-06T11:43:05.370Z,12.00
2019-03-06T11:44:08.320Z,12.00
2019-03-06T11:45:05.533Z,12.10
2019-03-06T11:46:07.474Z,12.10
2019-03-06T11:47:05.677Z,12.10
2019-03-06T11:48:10.379Z,12.10
2019-03-06T11:49:06.647Z,12.10
2019-03-06T11:50:05.274Z,12.20
2019-03-06T11:51:05.481Z,12.20
2019-03-06T11:52:08.582Z,12.20
2019-03-06T11:53:05.536Z,12.20
2019-03-06T11:54:05.586Z,12.30
2019-03-06T11:55:06.169Z,12.30
2019-03-06T11:56:07.735Z,12.40
2019-03-06T11:57:04.799Z,12.40
2019-03-06T11:58:05.219Z,12.50
2019-03-06T11:59:10.481Z,12.40
2019-03-06T12:00:05.638Z,12.50
2019-03-06T12:01:07.855Z,12.50
2019-03-06T12:02:05.428Z,12.50
2019-03-06T12:03:07.535Z,12.50
2019-03-06T12:04:08.192Z,12.50
2019-03-06T12:05:07.878Z,12.50
2019-03-06T12:06:07.638Z,12.50
2019-03-06T12:07:05.606Z,12.50
2019-03-06T12:08:07.677Z,12.50
2019-03-06T12:09:08.098Z,12.50
2019-03-06T12:10:05.256Z,12.50
2019-03-06T12:11:07.926Z,12.40
2019-03-06T12:12:07.727Z,12.40
2019-03-06T12:13:04.928Z,12.40
2019-03-06T12:14:05.240Z,12.40
2019-03-06T12:15:08.024Z,12.40
2019-03-06T12:16:05.324Z,12.30
2019-03-06T12:17:05.447Z,12.30
2019-03-06T12:18:05.354Z,12.20
2019-03-06T12:19:08.005Z,12.20
2019-03-06T12:20:08.531Z,12.10
2019-03-06T12:21:07.699Z,12.10
2019-03-06T12:22:04.903Z,12.10
2019-03-06T12:23:05.168Z,12.10
2019-03-06T12:24:05.583Z,12.10
2019-03-06T12:25:04.912Z,12.10
2019-03-06T12:26:05.449Z,12.10
2019-03-06T12:27:13.488Z,12.00
2019-03-06T12:28:08.050Z,12.00
2019-03-06T12:29:05.247Z,12.00
2019-03-06T12:30:05.476Z,12.00
2019-03-06T12:31:07.397Z,12.00
2019-03-06T12:32:05.594Z,12.00
2019-03-06T12:33:04.901Z,11.90
2019-03-06T12:34:05.593Z,11.90
2019-03-06T12:35:05.458Z,11.80
2019-03-06T12:36:10.719Z,11.80
2019-03-06T12:37:05.035Z,11.80
2019-03-06T12:38:05.192Z,11.80
2019-03-06T12:39:05.551Z,11.70
2019-03-06T12:40:11.941Z,11.70
2019-03-06T12:41:05.609Z,11.70
2019-03-06T12:42:13.727Z,11.70
2019-03-06T12:43:05.306Z,11.60
2019-03-06T12:44:10.298Z,11.70
2019-03-06T12:45:05.071Z,11.70
2019-03-06T12:46:08.066Z,11.60
2019-03-06T12:47:10.933Z,11.60
2019-03-06T12:48:05.494Z,11.60
2019-03-06T12:49:05.752Z,11.60
2019-03-06T12:50:10.047Z,11.60
2019-03-06T12:51:05.585Z,11.60
2019-03-06T12:52:07.731Z,11.60
2019-03-06T12:53:07.442Z,11.60
2019-03-06T12:54:05.641Z,11.60
2019-03-06T12:55:05.182Z,11.60
2019-03-06T12:56:05.632Z,11.60
2019-03-06T12:57:05.190Z,11.60
2019-03-06T12:58:08.298Z,11.60
2019-03-06T12:59:07.559Z,11.60
2019-03-06T13:00:05.584Z,11.60
2019-03-06T13:01:04.925Z,11.60
2019-03-06T13:02:07.727Z,11.60
2019-03-06T13:03:04.992Z,11.50
2019-03-06T13:04:07.880Z,11.50
2019-03-06T13:05:07.778Z,11.50
2019-03-06T13:06:05.103Z,11.50
2019-03-06T13:07:05.520Z,11.50
2019-03-06T13:08:05.072Z,11.40
2019-03-06T13:09:08.120Z,11.40
2019-03-06T13:10:08.033Z,11.30
2019-03-06T13:11:08.099Z,11.40
2019-03-06T13:12:05.261Z,11.30
2019-03-06T13:13:05.677Z,11.30